Kingsbury, United Kingdom
Current Conditions -  °F | °C
As of 12:20 AM on Sunday 26 Oct 2014 (Local Time) from EGBB Reporting Station
Broken Clouds Broken Clouds  
Wind Chill: 54°   Ceiling: 2800
Heat Index: 54°   Visibility: 6mi
Dew Point: 48°   Wind: 12mph
Humidity: 82%   Direction: 190°S
Pressure: 30.06"   Gusts: NA
Location:  52.56°N, 1.68°W
Report Text: EGBB 252320Z 19010KT 9999 BKN028 BKN034 12/09 Q1018
Loading
Personal Weather Stations






























Interactive Weather Map New forecast layout! Learn more

10-Day Weather Forecast

Advertisements
Track Severe Weather on mobile